createdAt,value
2022-10-11T00:01:28.854Z,3.30
2022-10-11T00:03:30.628Z,3.70
2022-10-11T00:05:31.939Z,3.60
2022-10-11T00:07:33.229Z,3.50
2022-10-11T00:09:35.009Z,3.75
2022-10-11T00:11:36.758Z,3.80
2022-10-11T00:13:38.066Z,4.00
2022-10-11T00:15:40.525Z,4.43
2022-10-11T00:17:41.923Z,3.50
2022-10-11T00:19:43.208Z,3.58
2022-10-11T00:21:44.834Z,3.20
2022-10-11T00:23:46.146Z,4.07
2022-10-11T00:25:55.772Z,3.88
2022-10-11T00:27:57.045Z,3.92
2022-10-11T00:29:58.307Z,3.35
2022-10-11T00:31:59.652Z,3.80
2022-10-11T00:34:00.974Z,4.00
2022-10-11T00:36:02.812Z,3.83
2022-10-11T00:38:04.389Z,3.58
2022-10-11T00:40:07.166Z,4.00
2022-10-11T00:42:12.317Z,3.70
2022-10-11T00:44:13.599Z,4.57
2022-10-11T00:46:17.760Z,3.70
2022-10-11T00:48:23.191Z,3.17
2022-10-11T00:50:24.918Z,3.17
2022-10-11T00:52:33.985Z,2.78
2022-10-11T00:54:37.129Z,3.30
2022-10-11T00:56:39.852Z,3.30
2022-10-11T00:58:41.351Z,3.50
2022-10-11T01:00:42.692Z,3.15
2022-10-11T01:02:44.034Z,3.22
2022-10-11T01:04:45.553Z,3.05
2022-10-11T01:06:47.442Z,2.60
2022-10-11T01:08:50.057Z,2.90
2022-10-11T01:10:52.068Z,2.70
2022-10-11T01:12:59.486Z,2.58
2022-10-11T01:15:18.676Z,3.30
2022-10-11T01:17:22.401Z,2.42
2022-10-11T01:19:59.205Z,2.83
2022-10-11T01:22:24.569Z,3.53
2022-10-11T01:24:25.827Z,3.03
2022-10-11T01:26:27.085Z,2.85
2022-10-11T01:28:53.153Z,3.47
2022-10-11T01:30:57.820Z,3.80
2022-10-11T01:33:17.083Z,3.50
2022-10-11T01:35:18.319Z,3.95
2022-10-11T01:37:24.700Z,3.42
2022-10-11T01:39:30.189Z,3.30
2022-10-11T01:41:46.189Z,3.53
2022-10-11T01:43:49.162Z,3.20
2022-10-11T01:45:52.469Z,2.80
2022-10-11T01:48:07.300Z,2.70
2022-10-11T01:50:28.557Z,3.13
2022-10-11T01:52:32.143Z,3.35
2022-10-11T01:55:09.553Z,3.45
2022-10-11T01:57:14.658Z,3.60
2022-10-11T01:59:37.511Z,4.15
2022-10-11T02:01:59.090Z,4.25
2022-10-11T02:04:09.889Z,3.95
2022-10-11T02:06:20.228Z,3.85
2022-10-11T02:08:21.569Z,4.07
2022-10-11T02:10:42.421Z,4.88
2022-10-11T02:12:46.417Z,3.90
2022-10-11T02:14:49.413Z,4.35
2022-10-11T02:16:53.540Z,4.15
2022-10-11T02:18:55.375Z,4.90
2022-10-11T02:20:57.465Z,4.20
2022-10-11T02:23:05.561Z,4.80
2022-10-11T02:25:09.380Z,4.28
2022-10-11T02:27:11.448Z,4.60
2022-10-11T02:29:13.942Z,4.88
2022-10-11T02:31:16.190Z,4.50
2022-10-11T02:33:20.468Z,5.00
2022-10-11T02:35:24.257Z,5.43
2022-10-11T02:37:37.685Z,4.53
2022-10-11T02:39:41.485Z,4.50
2022-10-11T02:41:43.217Z,4.72
2022-10-11T02:44:06.057Z,4.78
2022-10-11T02:46:08.576Z,4.60
2022-10-11T02:48:11.001Z,4.55
2022-10-11T02:50:13.328Z,4.60
2022-10-11T02:52:14.637Z,3.85
2022-10-11T02:54:16.124Z,4.63
2022-10-11T02:56:17.414Z,4.07
2022-10-11T02:58:19.126Z,4.50
2022-10-11T03:00:20.474Z,3.72
2022-10-11T03:02:22.045Z,3.40
2022-10-11T03:04:23.340Z,3.60
2022-10-11T03:06:24.716Z,3.38
2022-10-11T03:08:26.103Z,3.50
2022-10-11T03:10:27.384Z,3.78
2022-10-11T03:12:28.658Z,3.70
2022-10-11T03:14:29.969Z,4.40
2022-10-11T03:16:31.231Z,4.40
2022-10-11T03:18:32.558Z,4.80
2022-10-11T03:20:33.884Z,4.50
2022-10-11T03:22:35.232Z,5.18
2022-10-11T03:24:36.542Z,4.82
2022-10-11T03:26:37.858Z,5.95
2022-10-11T03:28:39.323Z,5.90
2022-10-11T03:30:40.681Z,6.18
2022-10-11T03:32:42.142Z,6.20
2022-10-11T03:34:43.425Z,5.78
2022-10-11T03:36:44.707Z,5.28
2022-10-11T03:38:46.020Z,5.90
2022-10-11T03:40:47.562Z,6.10
2022-10-11T03:42:48.857Z,5.68
2022-10-11T03:44:51.822Z,5.05
2022-10-11T03:46:53.111Z,5.25
2022-10-11T03:48:54.434Z,5.30
2022-10-11T03:50:55.910Z,5.85
2022-10-11T03:52:57.186Z,5.20
2022-10-11T03:54:58.468Z,5.35
2022-10-11T03:56:59.783Z,5.40
2022-10-11T03:59:02.053Z,5.43
2022-10-11T04:01:03.663Z,5.40
2022-10-11T04:03:04.945Z,5.35
2022-10-11T04:05:06.782Z,5.68
2022-10-11T04:07:08.170Z,5.13
2022-10-11T04:09:09.535Z,5.10
2022-10-11T04:11:10.836Z,5.20
2022-10-11T04:13:12.301Z,5.15
2022-10-11T04:15:13.931Z,4.68
2022-10-11T04:17:15.255Z,4.90
2022-10-11T04:19:16.619Z,3.97
2022-10-11T04:21:17.943Z,4.20
2022-10-11T04:23:19.238Z,3.85
2022-10-11T04:25:20.521Z,3.35
2022-10-11T04:27:21.853Z,2.90
2022-10-11T04:29:23.566Z,3.10
2022-10-11T04:31:25.022Z,3.08
2022-10-11T04:33:26.392Z,3.55
2022-10-11T04:35:27.699Z,3.80
2022-10-11T04:37:28.969Z,3.58
2022-10-11T04:39:30.244Z,3.13
2022-10-11T04:41:31.560Z,3.47
2022-10-11T04:43:32.876Z,4.90
2022-10-11T04:45:34.191Z,4.72
2022-10-11T04:47:35.539Z,4.63
2022-10-11T04:49:36.921Z,6.45
2022-10-11T04:51:38.227Z,5.32
2022-10-11T04:53:39.512Z,6.22
2022-10-11T04:55:40.827Z,5.43
2022-10-11T04:57:42.459Z,5.43
2022-10-11T04:59:49.217Z,5.90
2022-10-11T05:01:51.469Z,5.60
2022-10-11T05:03:52.816Z,5.32
2022-10-11T05:05:54.188Z,6.43
2022-10-11T05:07:55.493Z,6.22
2022-10-11T05:09:56.765Z,6.40
2022-10-11T05:11:58.036Z,6.82
2022-10-11T05:13:59.344Z,6.95
2022-10-11T05:16:00.660Z,7.07
2022-10-11T05:18:01.964Z,6.10
2022-10-11T05:20:04.075Z,4.55
2022-10-11T05:22:05.394Z,3.78
2022-10-11T05:24:06.843Z,4.80
2022-10-11T05:26:08.924Z,5.15
2022-10-11T05:28:10.446Z,4.10
2022-10-11T05:30:12.039Z,4.28
2022-10-11T05:32:13.407Z,4.22
2022-10-11T05:34:14.673Z,3.90
2022-10-11T05:36:16.105Z,4.30
2022-10-11T05:38:17.511Z,4.60
2022-10-11T05:40:18.795Z,4.15
2022-10-11T05:42:20.283Z,4.10
2022-10-11T05:44:21.679Z,4.05
2022-10-11T05:46:23.030Z,3.92
2022-10-11T05:48:26.132Z,4.03
2022-10-11T05:50:27.430Z,4.28
2022-10-11T05:52:28.704Z,4.32
2022-10-11T05:54:30.896Z,4.25
2022-10-11T05:56:32.203Z,4.55
2022-10-11T05:58:33.514Z,3.33
2022-10-11T06:00:37.970Z,4.80
2022-10-11T06:02:39.311Z,3.78
2022-10-11T06:04:40.608Z,4.20
2022-10-11T06:06:41.941Z,4.45
2022-10-11T06:08:43.323Z,4.25
2022-10-11T06:10:44.961Z,3.83
2022-10-11T06:12:46.234Z,4.28
2022-10-11T06:14:47.533Z,4.22
2022-10-11T06:16:48.835Z,4.00
2022-10-11T06:18:53.709Z,3.65
2022-10-11T06:20:54.973Z,4.00
2022-10-11T06:22:58.181Z,4.00
2022-10-11T06:24:59.455Z,3.90
2022-10-11T06:27:00.798Z,4.38
2022-10-11T06:29:02.272Z,4.40
2022-10-11T06:31:05.021Z,4.40
2022-10-11T06:33:06.658Z,3.95
2022-10-11T06:35:08.172Z,4.50
2022-10-11T06:37:09.483Z,4.47
2022-10-11T06:39:10.794Z,4.68
2022-10-11T06:41:14.135Z,5.68
2022-10-11T06:43:15.457Z,6.90
2022-10-11T06:45:17.063Z,7.43
2022-10-11T06:47:18.360Z,9.63
2022-10-11T06:49:23.269Z,8.80
2022-10-11T06:51:25.133Z,9.05
2022-10-11T06:53:27.170Z,8.88
2022-10-11T06:55:28.721Z,7.93
2022-10-11T06:57:30.048Z,7.68
2022-10-11T06:59:31.614Z,6.55
2022-10-11T07:01:33.469Z,6.88
2022-10-11T07:03:35.194Z,8.00
2022-10-11T07:05:36.880Z,7.25
2022-10-11T07:07:38.158Z,9.40
2022-10-11T07:09:39.522Z,9.27
2022-10-11T07:11:40.892Z,9.30
2022-10-11T07:13:42.751Z,9.95
2022-10-11T07:15:44.089Z,10.43
2022-10-11T07:17:45.432Z,10.05
2022-10-11T07:19:46.998Z,9.82
2022-10-11T07:21:48.355Z,9.48
2022-10-11T07:23:50.872Z,9.98
2022-10-11T07:25:54.738Z,9.10
2022-10-11T07:27:56.087Z,9.05
2022-10-11T07:29:57.528Z,7.68
2022-10-11T07:31:59.097Z,7.30
2022-10-11T07:34:00.521Z,7.78
2022-10-11T07:36:04.157Z,6.93
2022-10-11T07:38:06.572Z,8.70
2022-10-11T07:40:23.016Z,8.23
2022-10-11T07:42:28.033Z,6.43
2022-10-11T07:44:29.553Z,6.28
2022-10-11T07:46:31.611Z,7.30
2022-10-11T07:48:36.338Z,6.43
2022-10-11T07:50:37.792Z,6.45
2022-10-11T07:52:39.535Z,6.38
2022-10-11T07:54:41.108Z,6.75
2022-10-11T07:56:42.495Z,6.13
2022-10-11T07:58:44.152Z,5.97
2022-10-11T08:00:45.587Z,7.18
2022-10-11T08:02:49.413Z,6.60
2022-10-11T08:04:50.953Z,6.53
2022-10-11T08:06:53.536Z,7.05
2022-10-11T08:08:55.525Z,7.22
2022-10-11T08:10:59.475Z,7.82
2022-10-11T08:13:04.446Z,8.77
2022-10-11T08:15:06.317Z,7.47
2022-10-11T08:17:08.271Z,8.43
2022-10-11T09:44:51.337Z,9.90
2022-10-11T09:48:54.680Z,11.82
2022-10-11T09:51:00.824Z,10.38
2022-10-11T09:53:04.832Z,9.00
2022-10-11T09:55:06.251Z,9.10
2022-10-11T09:57:18.572Z,8.65
2022-10-11T09:59:27.443Z,8.65
2022-10-11T10:01:30.802Z,7.63
2022-10-11T10:03:34.145Z,7.00
2022-10-11T10:05:36.932Z,7.50
2022-10-11T10:07:40.413Z,6.43
2022-10-11T10:09:41.740Z,6.07
2022-10-11T10:11:44.501Z,6.00
2022-10-11T10:13:46.089Z,6.07
2022-10-11T10:15:48.920Z,6.13
2022-10-11T10:17:50.860Z,5.80
2022-10-11T10:19:53.786Z,5.45
2022-10-11T10:21:55.710Z,5.70
2022-10-11T10:23:59.962Z,5.18
2022-10-11T10:26:11.286Z,5.35
2022-10-11T10:28:18.146Z,6.50
2022-10-11T10:30:19.941Z,6.22
2022-10-11T10:32:23.322Z,6.25
2022-10-11T10:34:29.902Z,5.40
2022-10-11T10:36:34.864Z,6.80
2022-10-11T10:38:40.661Z,6.10
2022-10-11T10:40:42.001Z,6.07
2022-10-11T10:42:43.408Z,6.30
2022-10-11T10:44:46.554Z,6.38
2022-10-11T10:46:56.273Z,8.27
2022-10-11T10:51:48.328Z,6.43
2022-10-11T10:53:56.700Z,6.50
2022-10-11T10:56:06.541Z,6.00
2022-10-11T10:58:26.899Z,6.65
2022-10-11T11:00:31.678Z,6.28
2022-10-11T11:02:41.520Z,6.57
2022-10-11T11:04:46.007Z,6.63
2022-10-11T11:06:53.343Z,6.28
2022-10-11T11:08:57.576Z,6.00
2022-10-11T11:11:04.920Z,6.63
2022-10-11T11:13:19.314Z,7.13
2022-10-11T11:15:39.052Z,7.50
2022-10-11T11:18:02.220Z,7.72
2022-10-11T11:20:06.495Z,7.20
2022-10-11T11:22:10.787Z,7.75
2022-10-11T11:24:21.105Z,8.32
2022-10-11T11:26:28.795Z,7.97
2022-10-11T11:28:30.237Z,8.65
2022-10-11T11:30:37.318Z,8.88
2022-10-11T11:32:50.538Z,9.85
2022-10-11T11:35:01.153Z,9.35
2022-10-11T11:37:09.296Z,9.45
2022-10-11T11:39:16.262Z,11.98
2022-10-11T11:41:21.028Z,10.15
2022-10-11T11:43:35.538Z,10.32
2022-10-11T11:45:39.898Z,10.98
2022-10-11T11:47:43.996Z,10.20
2022-10-11T11:49:48.117Z,10.55
2022-10-11T11:51:50.050Z,11.02
2022-10-11T11:54:01.903Z,10.43
2022-10-11T11:56:07.400Z,11.10
2022-10-11T11:58:27.177Z,10.35
2022-10-11T12:00:37.458Z,11.65
2022-10-11T12:02:41.999Z,10.75
2022-10-11T12:04:44.907Z,9.75
2022-10-11T12:07:15.526Z,8.63
2022-10-11T12:09:18.230Z,9.93
2022-10-11T12:11:21.355Z,9.02
2022-10-11T12:13:31.994Z,10.18
2022-10-11T12:15:33.872Z,9.90
2022-10-11T12:17:55.822Z,10.05
2022-10-11T12:20:09.440Z,10.38
2022-10-11T12:22:18.709Z,10.80
2022-10-11T12:24:20.051Z,10.60
2022-10-11T12:26:24.106Z,10.05
2022-10-11T12:28:37.457Z,11.07
2022-10-11T12:30:48.035Z,11.52
2022-10-11T12:32:50.394Z,13.00
2022-10-11T12:34:51.777Z,11.80
2022-10-11T12:36:53.352Z,11.85
2022-10-11T12:39:13.181Z,10.65
2022-10-11T12:41:18.185Z,12.00
2022-10-11T12:43:19.484Z,11.68
2022-10-11T12:45:20.905Z,13.18
2022-10-11T12:47:32.796Z,12.20
2022-10-11T12:49:50.004Z,13.20
2022-10-11T12:52:00.817Z,15.27
2022-10-11T12:54:26.776Z,12.43
2022-10-11T12:56:39.499Z,13.57
2022-10-11T12:58:46.510Z,15.43
2022-10-11T13:00:50.701Z,14.35
2022-10-11T13:02:52.398Z,13.82
2022-10-11T13:05:04.425Z,13.73
2022-10-11T13:07:12.658Z,14.38
2022-10-11T13:09:13.917Z,15.05
2022-10-11T13:11:20.336Z,13.65
2022-10-11T13:13:22.943Z,14.30
2022-10-11T13:15:24.424Z,14.20
2022-10-11T13:17:26.970Z,15.68
2022-10-11T13:19:29.311Z,15.55
2022-10-11T13:21:36.528Z,14.93
2022-10-11T13:23:38.536Z,14.70
2022-10-11T13:25:39.896Z,15.52
2022-10-11T13:27:41.315Z,14.52
2022-10-11T13:29:44.637Z,13.77
2022-10-11T13:31:46.809Z,15.15
2022-10-11T13:33:48.492Z,14.23
2022-10-11T13:35:50.463Z,13.20
2022-10-11T13:37:51.776Z,13.00
2022-10-11T13:39:53.778Z,14.05
2022-10-11T13:41:55.799Z,11.65
2022-10-11T13:43:58.288Z,10.73
2022-10-11T13:46:00.805Z,10.18
2022-10-11T13:48:02.245Z,10.25
2022-10-11T13:50:24.344Z,10.50
2022-10-11T13:52:25.712Z,12.60
2022-10-11T13:54:48.660Z,12.35
2022-10-11T13:56:50.983Z,12.80
2022-10-11T13:58:52.924Z,12.52
2022-10-11T14:01:02.691Z,13.00
2022-10-11T14:03:07.631Z,13.57
2022-10-11T14:05:20.878Z,13.90
2022-10-11T14:07:27.483Z,15.73
2022-10-11T14:09:36.609Z,17.73
2022-10-11T14:11:39.653Z,15.13
2022-10-11T14:13:49.714Z,15.98
2022-10-11T14:16:01.833Z,13.60
2022-10-11T14:18:23.408Z,14.48
2022-10-11T14:20:33.439Z,15.68
2022-10-11T14:22:34.883Z,16.20
2022-10-11T14:24:36.230Z,16.70
2022-10-11T14:26:45.559Z,17.02
2022-10-11T14:28:51.213Z,14.18
2022-10-11T14:30:52.567Z,14.13
2022-10-11T14:32:55.176Z,12.48
2022-10-11T14:34:57.134Z,12.20
2022-10-11T14:36:58.619Z,12.13
2022-10-11T14:38:59.901Z,12.27
2022-10-11T14:41:01.201Z,12.77
2022-10-11T14:43:02.497Z,11.63
2022-10-11T14:45:03.949Z,11.48
2022-10-11T14:47:06.764Z,11.38
2022-10-11T14:49:15.665Z,10.68
2022-10-11T14:51:21.156Z,11.90
2022-10-11T14:53:22.761Z,10.45
2022-10-11T14:55:24.506Z,9.32
2022-10-11T14:57:26.350Z,10.25
2022-10-11T14:59:28.968Z,9.52
2022-10-11T15:01:30.310Z,9.50
2022-10-11T15:03:31.935Z,9.90
2022-10-11T15:05:35.202Z,10.43
2022-10-11T15:07:36.574Z,10.68
2022-10-11T15:09:37.958Z,10.45
2022-10-11T15:11:39.387Z,9.07
2022-10-11T15:13:40.744Z,9.57
2022-10-11T15:15:42.838Z,10.95
2022-10-11T15:17:44.152Z,9.65
2022-10-11T15:19:45.489Z,9.27
2022-10-11T15:21:47.252Z,10.15
2022-10-11T15:23:49.064Z,11.00
2022-10-11T15:25:50.395Z,11.02
2022-10-11T15:27:52.282Z,10.70
2022-10-11T15:29:53.640Z,11.02
2022-10-11T15:31:54.999Z,9.52
2022-10-11T15:33:59.449Z,8.48
2022-10-11T15:36:00.816Z,8.25
2022-10-11T15:38:02.162Z,8.20
2022-10-11T15:40:13.789Z,8.50
2022-10-11T15:42:15.112Z,8.55
2022-10-11T15:44:16.586Z,9.10
2022-10-11T15:46:19.791Z,8.18
2022-10-11T15:48:22.440Z,7.90
2022-10-11T15:50:34.346Z,7.97
2022-10-11T15:52:35.880Z,8.20
2022-10-11T15:54:37.258Z,7.72
2022-10-11T15:56:38.838Z,7.72
2022-10-11T15:58:40.819Z,9.23
2022-10-11T16:00:43.511Z,8.90
2022-10-11T16:02:44.813Z,8.50
2022-10-11T16:04:46.188Z,9.10
2022-10-11T16:06:47.532Z,9.77
2022-10-11T16:08:48.858Z,9.02
2022-10-11T16:10:50.447Z,10.68
2022-10-11T16:12:51.768Z,9.48
2022-10-11T16:14:53.257Z,10.07
2022-10-11T16:16:54.564Z,9.68
2022-10-11T16:18:55.902Z,7.68
2022-10-11T16:20:57.261Z,10.18
2022-10-11T16:22:58.665Z,8.88
2022-10-11T16:25:00.697Z,9.57
2022-10-11T16:27:02.061Z,8.93
2022-10-11T16:29:03.566Z,8.80
2022-10-11T16:31:13.691Z,7.32
2022-10-11T16:33:14.990Z,8.18
2022-10-11T16:35:16.544Z,9.20
2022-10-11T16:37:18.042Z,8.55
2022-10-11T16:39:19.981Z,7.78
2022-10-11T16:41:21.524Z,8.07
2022-10-11T16:43:23.065Z,8.07
2022-10-11T16:45:24.420Z,6.93
2022-10-11T16:47:25.779Z,8.00
2022-10-11T16:49:28.197Z,7.82
2022-10-11T16:51:29.720Z,7.07
2022-10-11T16:53:33.165Z,7.65
2022-10-11T16:55:34.502Z,7.88
2022-10-11T16:57:37.701Z,7.13
2022-10-11T16:59:39.304Z,7.57
2022-10-11T17:01:40.618Z,19.83
2022-10-11T17:03:41.954Z,6.80
2022-10-11T17:05:43.273Z,6.10
2022-10-11T17:07:44.672Z,6.65
2022-10-11T17:09:46.116Z,6.80
2022-10-11T17:11:47.482Z,6.75
2022-10-11T17:13:49.344Z,6.07
2022-10-11T17:15:50.778Z,6.95
2022-10-11T17:17:55.046Z,6.93
2022-10-11T17:19:56.321Z,7.53
2022-10-11T17:21:57.709Z,6.75
2022-10-11T17:23:59.088Z,7.95
2022-10-11T17:26:03.074Z,7.57
2022-10-11T17:28:05.705Z,7.35
2022-10-11T17:30:07.297Z,8.10
2022-10-11T17:32:08.891Z,7.95
2022-10-11T17:34:12.008Z,8.05
2022-10-11T17:36:15.452Z,12.60
2022-10-11T17:38:19.649Z,7.28
2022-10-11T17:40:21.053Z,10.45
2022-10-11T17:42:22.386Z,13.68
2022-10-11T17:44:23.726Z,7.45
2022-10-11T17:46:27.571Z,8.57
2022-10-11T17:48:29.176Z,9.32
2022-10-11T17:50:30.856Z,9.85
2022-10-11T17:52:32.563Z,8.00
2022-10-11T17:54:33.992Z,7.57
2022-10-11T17:56:38.188Z,7.28
2022-10-11T17:58:39.677Z,8.27
2022-10-11T18:00:41.191Z,7.70
2022-10-11T18:02:42.542Z,7.60
2022-10-11T18:04:43.953Z,7.00
2022-10-11T18:06:46.126Z,7.68
2022-10-11T18:08:47.520Z,6.88
2022-10-11T18:10:48.896Z,6.85
2022-10-11T18:12:53.500Z,7.28
2022-10-11T18:14:54.856Z,5.97
2022-10-11T18:16:56.813Z,5.95
2022-10-11T18:18:58.753Z,5.28
2022-10-11T18:21:00.541Z,5.68
2022-10-11T18:23:01.973Z,5.68
2022-10-11T18:25:03.426Z,6.18
2022-10-11T18:27:04.849Z,6.32
2022-10-11T18:29:06.496Z,7.80
2022-10-11T18:31:12.868Z,6.70
2022-10-11T18:33:15.403Z,6.28
2022-10-11T18:35:16.763Z,6.50
2022-10-11T18:37:18.064Z,6.50
2022-10-11T18:39:21.707Z,6.93
2022-10-11T18:41:23.995Z,6.57
2022-10-11T18:43:25.324Z,7.13
2022-10-11T18:45:26.750Z,7.32
2022-10-11T18:47:28.164Z,8.75
2022-10-11T18:49:29.639Z,7.95
2022-10-11T18:51:33.205Z,7.40
2022-10-11T18:53:34.689Z,7.25
2022-10-11T18:55:36.085Z,5.93
2022-10-11T18:57:37.450Z,7.45
2022-10-11T18:59:38.889Z,7.47
2022-10-11T19:01:41.635Z,6.07
2022-10-11T19:03:43.517Z,6.35
2022-10-11T19:05:44.914Z,6.47
2022-10-11T19:07:46.238Z,5.90
2022-10-11T19:09:47.756Z,6.95
2022-10-11T19:11:50.220Z,7.10
2022-10-11T19:13:58.453Z,7.00
2022-10-11T19:16:07.601Z,7.35
2022-10-11T19:18:13.488Z,7.10
2022-10-11T19:20:16.368Z,7.60
2022-10-11T19:22:17.741Z,8.20
2022-10-11T19:24:20.385Z,8.13
2022-10-11T19:26:23.129Z,8.52
2022-10-11T19:28:24.727Z,8.25
2022-10-11T19:30:26.320Z,7.55
2022-10-11T19:32:27.653Z,7.03
2022-10-11T19:34:29.936Z,6.88
2022-10-11T19:36:36.280Z,6.43
2022-10-11T19:38:38.051Z,7.32
2022-10-11T19:40:39.565Z,8.02
2022-10-11T19:42:40.875Z,7.60
2022-10-11T19:44:42.217Z,8.18
2022-10-11T19:46:51.473Z,8.38
2022-10-11T19:48:53.613Z,8.98
2022-10-11T19:51:05.383Z,9.43
2022-10-11T19:53:07.015Z,9.10
2022-10-11T19:55:08.544Z,10.00
2022-10-11T19:57:09.893Z,8.68
2022-10-11T19:59:14.639Z,10.18
2022-10-11T20:01:17.777Z,7.75
2022-10-11T20:03:19.189Z,8.45
2022-10-11T20:05:20.558Z,8.23
2022-10-11T20:07:21.903Z,8.63
2022-10-11T20:09:31.122Z,9.32
2022-10-11T20:11:32.649Z,9.50
2022-10-11T20:13:35.149Z,8.60
2022-10-11T20:15:37.116Z,9.65
2022-10-11T20:17:50.375Z,9.30
2022-10-11T20:19:52.672Z,9.27
2022-10-11T20:21:54.061Z,8.40
2022-10-11T20:24:00.040Z,11.45
2022-10-11T20:26:01.344Z,8.43
2022-10-11T20:28:02.761Z,7.60
2022-10-11T20:30:04.755Z,7.78
2022-10-11T20:32:06.096Z,7.45
2022-10-11T20:34:07.790Z,7.63
2022-10-11T20:36:12.086Z,9.10
2022-10-11T20:38:13.489Z,7.88
2022-10-11T20:40:14.937Z,7.43
2022-10-11T20:42:16.320Z,9.48
2022-10-11T20:44:17.921Z,9.13
2022-10-11T20:46:20.855Z,9.57
2022-10-11T20:48:22.206Z,9.75
2022-10-11T20:50:23.611Z,8.77
2022-10-11T20:52:25.109Z,8.10
2022-10-11T20:54:28.839Z,8.73
2022-10-11T20:56:30.794Z,9.40
2022-10-11T20:58:32.553Z,7.95
2022-10-11T21:00:33.914Z,9.02
2022-10-11T21:02:35.524Z,8.50
2022-10-11T21:04:37.018Z,9.35
2022-10-11T21:06:38.439Z,9.45
2022-10-11T21:08:39.810Z,9.07
2022-10-11T21:10:50.244Z,9.35
2022-10-11T21:12:51.574Z,9.75
2022-10-11T21:14:52.923Z,8.70
2022-10-11T21:16:54.251Z,8.27
2022-10-11T21:18:56.767Z,13.18
2022-10-11T21:20:58.311Z,14.68
2022-10-11T21:22:59.619Z,9.77
2022-10-11T21:25:00.942Z,14.00
2022-10-11T21:27:02.279Z,10.98
2022-10-11T21:29:04.171Z,8.50
2022-10-11T21:31:09.741Z,14.25
2022-10-11T21:33:11.081Z,9.07
2022-10-11T21:35:12.458Z,8.80
2022-10-11T21:37:13.903Z,8.70
2022-10-11T21:39:20.510Z,8.35
2022-10-11T21:41:23.096Z,6.78
2022-10-11T21:43:24.847Z,7.13
2022-10-11T21:45:26.179Z,7.53
2022-10-11T21:47:27.480Z,8.18
2022-10-11T21:49:28.907Z,7.47
2022-10-11T21:51:30.875Z,7.63
2022-10-11T21:53:32.217Z,7.88
2022-10-11T21:55:33.504Z,9.27
2022-10-11T21:57:34.920Z,8.95
2022-10-11T21:59:36.284Z,8.20
2022-10-11T22:01:37.962Z,9.68
2022-10-11T22:03:39.327Z,9.18
2022-10-11T22:05:46.852Z,9.32
2022-10-11T22:07:48.391Z,9.70
2022-10-11T22:09:49.739Z,8.90
2022-10-11T22:11:51.088Z,9.70
2022-10-11T22:13:52.519Z,8.80
2022-10-11T22:15:56.158Z,9.07
2022-10-11T22:17:57.525Z,9.30
2022-10-11T22:19:58.899Z,10.07
2022-10-11T22:22:00.275Z,10.18
2022-10-11T22:24:01.672Z,9.23
2022-10-11T22:26:07.123Z,10.48
2022-10-11T22:28:08.787Z,9.50
2022-10-11T22:30:10.371Z,8.65
2022-10-11T22:32:11.758Z,9.85
2022-10-11T22:34:13.088Z,9.77
2022-10-11T22:36:16.787Z,11.10
2022-10-11T22:38:18.168Z,11.40
2022-10-11T22:40:20.211Z,10.00
2022-10-11T22:42:27.525Z,10.32
2022-10-11T22:44:29.273Z,10.88
2022-10-11T22:46:30.632Z,9.98
2022-10-11T22:48:32.019Z,9.48
2022-10-11T22:50:33.415Z,10.35
2022-10-11T22:52:34.791Z,10.43
2022-10-11T22:54:36.240Z,10.13
2022-10-11T22:56:37.568Z,11.88
2022-10-11T22:58:38.963Z,9.85
2022-10-11T23:00:40.338Z,9.38
2022-10-11T23:02:41.749Z,11.30
2022-10-11T23:04:43.109Z,13.68
2022-10-11T23:06:44.542Z,10.65
2022-10-11T23:08:45.906Z,10.68
2022-10-11T23:10:47.286Z,10.82
2022-10-11T23:12:48.645Z,10.95
2022-10-11T23:14:49.929Z,9.55
2022-10-11T23:16:51.711Z,10.50
2022-10-11T23:18:53.377Z,11.20
2022-10-11T23:20:54.686Z,11.07
2022-10-11T23:22:55.985Z,11.38
2022-10-11T23:24:57.270Z,11.52
2022-10-11T23:26:58.580Z,10.60
2022-10-11T23:29:00.209Z,12.02
2022-10-11T23:31:05.660Z,11.05
2022-10-11T23:33:07.030Z,10.85
2022-10-11T23:35:08.422Z,10.90
2022-10-11T23:37:09.703Z,10.70
2022-10-11T23:39:12.463Z,11.00
2022-10-11T23:41:13.725Z,10.60
2022-10-11T23:43:15.020Z,10.68
2022-10-11T23:45:16.387Z,11.07
2022-10-11T23:47:17.802Z,11.13
2022-10-11T23:49:19.117Z,10.80
2022-10-11T23:51:20.583Z,11.25
2022-10-11T23:53:22.052Z,10.65
2022-10-11T23:55:23.319Z,10.50
2022-10-11T23:57:24.624Z,10.38
2022-10-11T23:59:25.976Z,9.68
